Time;durP1;ratioP1;P1;durP2;ratioP2;P2;SDS_P1;SDS_P2;PMS_P1;PMS_P2;Temp;Humidity;BMP_temperature;BMP_pressure;BME280_temperature;BME280_humidity;BME280_pressure;Samples;Min_cycle;Max_cycle;Signal;HPM_P1;HPM_P2
2023/10/20 00:01:41;;;;;;;0.13;0.13;;;;;;;30.94;48.24;96329.97;7392065;19;20009;-84
2023/10/20 00:04:07;;;;;;;0.15;0.15;;;;;;;28.52;53.61;96337.53;7395127;19;20355;-84
2023/10/20 00:06:33;;;;;;;0.43;0.30;;;;;;;28.51;55.55;96347.53;7397368;19;20468;-84
2023/10/20 00:09:00;;;;;;;0.10;0.00;;;;;;;28.44;57.22;96340.94;7397644;19;20002;-84
2023/10/20 00:11:26;;;;;;;0.03;0.03;;;;;;;29.74;54.22;96339.09;7395840;19;20045;-84
2023/10/20 00:13:52;;;;;;;0.13;0.13;;;;;;;28.81;56.51;96333.81;7396305;19;20766;-84
2023/10/20 00:16:29;;;;;;;0.00;0.00;;;;;;;28.25;59.06;96344.09;7396019;19;20461;-83
2023/10/20 00:19:01;;;;;;;0.00;0.00;;;;;;;28.40;58.85;96343.72;7397547;19;20011;-85
2023/10/20 00:21:27;;;;;;;0.30;0.10;;;;;;;29.05;57.54;96336.41;7396506;19;20034;-85
2023/10/20 00:23:53;;;;;;;0.10;0.10;;;;;;;28.56;59.15;96342.59;7398162;19;20458;-84
2023/10/20 00:26:19;;;;;;;0.10;0.10;;;;;;;29.67;56.50;96337.50;7397834;19;20476;-85
2023/10/20 00:28:49;;;;;;;0.28;0.28;;;;;;;30.15;54.74;96325.34;7399806;19;20006;-85
2023/10/20 00:31:16;;;;;;;0.00;0.00;;;;;;;29.06;57.33;96332.16;7398192;19;20472;-85
2023/10/20 00:33:43;;;;;;;0.10;0.10;;;;;;;28.98;57.67;96329.84;7396663;19;20011;-84
2023/10/20 00:36:09;;;;;;;0.00;0.00;;;;;;;29.33;56.80;96334.09;7391870;19;20014;-84
2023/10/20 00:38:36;;;;;;;0.30;0.30;;;;;;;29.48;56.57;96332.91;7393201;19;20017;-84
2023/10/20 00:41:02;;;;;;;0.55;0.20;;;;;;;30.55;53.85;96328.78;7393376;19;20006;-85
2023/10/20 00:43:35;;;;;;;1.65;0.85;;;;;;;30.54;52.80;96335.94;7392433;19;20010;-85
2023/10/20 00:46:04;;;;;;;1.10;0.10;;;;;;;30.67;52.12;96337.53;7391706;19;20009;-85
2023/10/20 00:48:40;;;;;;;0.10;0.10;;;;;;;31.74;50.38;96327.13;7393931;19;20007;-85
2023/10/20 00:51:07;;;;;;;0.30;0.30;;;;;;;32.41;48.67;96329.03;7392265;19;20010;-83
2023/10/20 00:53:34;;;;;;;0.00;0.00;;;;;;;31.39;50.06;96335.44;7393034;19;20037;-84
2023/10/20 00:56:04;;;;;;;0.22;0.20;;;;;;;31.31;50.25;96326.75;7396434;19;20471;-84
2023/10/20 00:58:30;;;;;;;0.55;0.10;;;;;;;31.15;51.00;96325.88;7396848;19;20015;-84
2023/10/20 01:00:57;;;;;;;0.15;0.10;;;;;;;31.33;50.38;96314.53;7396407;19;20006;-84
2023/10/20 01:03:23;;;;;;;0.47;0.20;;;;;;;31.43;50.21;96318.25;7396393;19;20014;-84
2023/10/20 01:05:51;;;;;;;1.20;0.32;;;;;;;32.14;48.57;96315.91;7398347;19;20010;-84
2023/10/20 01:08:17;;;;;;;0.10;0.00;;;;;;;32.43;47.68;96326.16;7396528;19;20423;-84
2023/10/20 01:10:44;;;;;;;0.30;0.10;;;;;;;32.41;47.37;96316.75;7397531;19;20031;-84
2023/10/20 01:13:10;;;;;;;0.88;0.10;;;;;;;31.82;48.53;96315.66;7396785;19;20480;-84
2023/10/20 01:15:37;;;;;;;0.32;0.10;;;;;;;30.70;50.44;96316.03;7396443;19;20379;-84
2023/10/20 01:18:04;;;;;;;0.08;0.08;;;;;;;32.00;47.84;96321.59;7397331;19;20017;-84
2023/10/20 01:20:31;;;;;;;0.10;0.03;;;;;;;31.33;48.84;96323.91;7395608;19;20117;-84
2023/10/20 01:22:59;;;;;;;0.10;0.10;;;;;;;30.86;49.83;96324.09;7391220;19;20014;-84
2023/10/20 01:25:26;;;;;;;0.10;0.05;;;;;;;30.36;50.44;96321.34;7391194;19;20014;-84
2023/10/20 01:27:53;;;;;;;0.10;0.10;;;;;;;30.59;50.90;96320.19;7392593;19;20015;-83
2023/10/20 01:30:19;;;;;;;0.38;0.38;;;;;;;29.77;52.84;96317.63;7390302;19;20410;-84
2023/10/20 01:32:45;;;;;;;0.10;0.10;;;;;;;30.71;50.22;96323.22;7389672;19;20018;-83
2023/10/20 01:35:13;;;;;;;0.10;0.10;;;;;;;30.39;50.73;96319.94;7391286;19;20022;-84
2023/10/20 01:37:40;;;;;;;0.10;0.10;;;;;;;29.12;54.36;96315.06;7396435;19;20024;-83
2023/10/20 01:40:09;;;;;;;0.13;0.10;;;;;;;29.88;53.49;96313.50;7400270;19;20007;-83
2023/10/20 01:42:35;;;;;;;0.80;0.40;;;;;;;28.91;55.82;96313.25;7393717;19;20448;-83
2023/10/20 01:45:02;;;;;;;0.10;0.10;;;;;;;29.57;54.65;96314.41;7390034;19;20007;-83
2023/10/20 01:47:28;;;;;;;4.72;0.15;;;;;;;30.64;51.95;96310.22;7389300;19;20058;-83
2023/10/20 01:49:55;;;;;;;0.20;0.10;;;;;;;31.04;51.08;96307.06;7391038;19;20025;-84
2023/10/20 01:52:21;;;;;;;0.10;0.00;;;;;;;31.37;50.66;96303.81;7391094;19;20018;-84
2023/10/20 01:54:47;;;;;;;0.10;0.00;;;;;;;31.30;49.58;96295.81;7389700;19;20019;-84
2023/10/20 01:57:13;;;;;;;1.95;0.20;;;;;;;32.73;47.12;96300.34;7391248;19;20042;-83
2023/10/20 01:59:39;;;;;;;0.10;0.00;;;;;;;31.71;48.63;96299.75;7390335;19;20006;-84
2023/10/20 02:02:06;;;;;;;0.22;0.22;;;;;;;32.56;47.15;96295.97;7389431;19;20512;-83
2023/10/20 02:04:32;;;;;;;0.85;0.10;;;;;;;31.48;48.86;96298.16;7388762;19;20011;-83
2023/10/20 02:06:58;;;;;;;0.20;0.10;;;;;;;31.84;48.17;96301.28;7392887;19;20461;-84
2023/10/20 02:09:25;;;;;;;1.02;0.10;;;;;;;31.52;48.53;96292.44;7392862;19;20006;-83
2023/10/20 02:11:56;;;;;;;0.03;0.03;;;;;;;31.01;49.72;96288.38;7392699;19;20011;-84
2023/10/20 02:14:23;;;;;;;0.10;0.10;;;;;;;31.14;49.92;96284.19;7390872;19;20014;-84
2023/10/20 02:16:52;;;;;;;0.10;0.10;;;;;;;31.04;50.24;96286.94;7391421;19;20031;-84
2023/10/20 02:19:19;;;;;;;0.00;0.00;;;;;;;32.36;48.11;96289.38;7392343;19;20344;-84
2023/10/20 02:21:47;;;;;;;0.10;0.00;;;;;;;34.62;43.73;96276.50;7391310;19;20053;-84
2023/10/20 02:24:13;;;;;;;0.05;0.05;;;;;;;33.90;44.41;96283.19;7391593;19;20465;-84
2023/10/20 02:26:40;;;;;;;0.10;0.10;;;;;;;31.56;47.94;96280.94;7390089;19;20040;-84
2023/10/20 02:29:06;;;;;;;0.25;0.15;;;;;;;33.00;45.46;96280.28;7393106;19;20005;-84
2023/10/20 02:31:32;;;;;;;0.00;0.00;;;;;;;32.35;45.99;96274.25;7393225;19;20007;-84
2023/10/20 02:33:59;;;;;;;0.03;0.00;;;;;;;32.10;46.65;96267.66;7390836;19;20006;-84
2023/10/20 02:36:25;;;;;;;0.10;0.10;;;;;;;32.13;46.92;96272.00;7390924;19;20002;-84
2023/10/20 02:38:52;;;;;;;0.05;0.00;;;;;;;31.47;47.61;96262.19;7393086;19;20015;-84
2023/10/20 02:41:19;;;;;;;0.10;0.10;;;;;;;32.04;47.08;96258.28;7392489;19;20028;-85
2023/10/20 02:43:47;;;;;;;0.15;0.15;;;;;;;33.46;45.06;96251.47;7392309;19;20031;-85
2023/10/20 02:46:13;;;;;;;0.08;0.08;;;;;;;33.80;43.53;96256.50;7390720;19;20383;-84
2023/10/20 02:48:40;;;;;;;0.00;0.00;;;;;;;33.40;44.59;96246.41;7396972;19;20034;-85
2023/10/20 02:51:14;;;;;;;1.65;0.10;;;;;;;34.93;41.90;96239.47;7399708;19;20014;-85
2023/10/20 02:53:41;;;;;;;0.10;0.00;;;;;;;34.88;41.74;96235.88;7398751;19;20394;-85
2023/10/20 02:56:12;;;;;;;0.10;0.05;;;;;;;35.83;40.36;96237.31;7399847;19;20031;-85
2023/10/20 02:58:39;;;;;;;0.10;0.00;;;;;;;34.87;40.93;96225.06;7400443;19;20027;-84
2023/10/20 03:01:07;;;;;;;0.52;0.43;;;;;;;34.68;41.37;96238.16;7397722;19;20016;-84
2023/10/20 03:03:34;;;;;;;0.10;0.10;;;;;;;34.66;41.22;96223.72;7397047;19;19999;-85
2023/10/20 03:06:01;;;;;;;0.10;0.10;;;;;;;35.89;40.04;96232.16;7396885;19;20014;-85
2023/10/20 03:08:30;;;;;;;0.32;0.20;;;;;;;36.44;38.83;96223.63;7398333;19;20007;-86
2023/10/20 03:10:57;;;;;;;0.03;0.03;;;;;;;36.52;38.70;96220.59;7398539;19;20360;-85
2023/10/20 03:13:24;;;;;;;0.10;0.10;;;;;;;35.23;39.67;96210.34;7398389;19;20418;-85
2023/10/20 03:15:50;;;;;;;0.20;0.10;;;;;;;34.99;40.20;96208.34;7398282;19;20017;-85
2023/10/20 03:18:16;;;;;;;0.10;0.00;;;;;;;34.79;40.49;96204.84;7399543;19;20006;-85
2023/10/20 03:20:43;;;;;;;0.10;0.00;;;;;;;34.72;40.57;96194.75;7397653;19;20296;-84
2023/10/20 03:23:10;;;;;;;0.20;0.10;;;;;;;34.27;40.53;96200.06;7399250;19;20010;-85
2023/10/20 03:25:37;;;;;;;0.10;0.10;;;;;;;34.78;40.33;96188.97;7397895;19;20468;-85
2023/10/20 03:28:03;;;;;;;1.63;0.43;;;;;;;34.81;40.44;96193.25;7400151;19;20027;-84
2023/10/20 03:30:29;;;;;;;0.00;0.00;;;;;;;35.51;39.40;96192.75;7397372;19;20011;-84
2023/10/20 03:32:55;;;;;;;0.10;0.10;;;;;;;35.42;39.30;96191.34;7396741;19;20023;-84
2023/10/20 03:35:21;;;;;;;3.58;0.13;;;;;;;35.15;39.26;96183.66;7397124;19;20022;-84
2023/10/20 03:37:56;;;;;;;0.57;0.25;;;;;;;34.74;40.08;96195.47;7397151;19;20002;-84
2023/10/20 03:40:30;;;;;;;0.30;0.17;;;;;;;35.39;39.23;96189.22;7399010;19;20010;-84
2023/10/20 03:42:59;;;;;;;0.40;0.40;;;;;;;34.92;39.44;96185.97;7399545;19;20014;-84
2023/10/20 03:45:25;;;;;;;0.00;0.00;;;;;;;35.42;39.22;96184.84;7396309;19;20104;-85
2023/10/20 03:47:53;;;;;;;0.17;0.10;;;;;;;34.74;39.60;96183.22;7399020;19;20039;-84
2023/10/20 03:50:19;;;;;;;0.00;0.00;;;;;;;34.38;40.50;96183.38;7396804;19;20011;-85
2023/10/20 03:52:46;;;;;;;0.40;0.40;;;;;;;34.42;40.51;96180.47;7395303;19;20013;-84
2023/10/20 03:55:13;;;;;;;0.17;0.17;;;;;;;36.09;38.67;96184.91;7397669;19;20006;-85
2023/10/20 03:57:44;;;;;;;0.08;0.03;;;;;;;34.69;40.49;96182.50;7395048;19;20041;-84
2023/10/20 04:00:21;;;;;;;0.20;0.20;;;;;;;33.83;41.44;96174.22;7395219;19;20339;-85
2023/10/20 04:02:47;;;;;;;0.08;0.00;;;;;;;34.49;40.87;96168.16;7397622;19;20018;-85
2023/10/20 04:05:16;;;;;;;0.10;0.10;;;;;;;33.90;41.39;96169.84;7397205;19;20032;-85
2023/10/20 04:07:43;;;;;;;0.10;0.10;;;;;;;34.02;41.60;96173.44;7395129;19;20041;-84
2023/10/20 04:10:09;;;;;;;0.00;0.00;;;;;;;33.45;42.34;96166.34;7395656;19;20018;-84
2023/10/20 04:12:39;;;;;;;0.20;0.13;;;;;;;33.45;42.35;96172.09;7397008;19;20496;-85
2023/10/20 04:15:08;;;;;;;1.30;0.10;;;;;;;33.79;42.07;96159.78;7395016;19;20027;-84
2023/10/20 04:17:38;;;;;;;0.00;0.00;;;;;;;34.13;41.52;96160.38;7395521;19;20468;-84
2023/10/20 04:20:15;;;;;;;0.20;0.20;;;;;;;34.98;40.86;96151.19;7396050;19;19998;-83
2023/10/20 04:22:43;;;;;;;0.10;0.00;;;;;;;34.90;40.03;96148.38;7396571;19;20014;-83
2023/10/20 04:25:12;;;;;;;1.17;0.30;;;;;;;35.20;39.78;96151.03;7396289;19;20473;-84
2023/10/20 04:41:56;;;;;;;0.10;0.10;;;;;;;31.57;44.80;96121.28;7397811;19;20010;-84
2023/10/20 04:49:55;;;;;;;0.03;0.00;;;;;;;32.85;43.49;96107.25;7394712;19;20002;-84
2023/10/20 05:07:58;;;;;;;1.10;0.30;;;;;;;33.63;42.07;96073.97;7396780;19;20052;-83
2023/10/20 05:10:25;;;;;;;0.10;0.10;;;;;;;34.38;41.54;96076.47;7393793;19;20010;-84
2023/10/20 05:12:51;;;;;;;0.35;0.35;;;;;;;35.30;40.09;96078.63;7396271;19;20343;-82
2023/10/20 05:15:17;;;;;;;0.00;0.00;;;;;;;35.47;39.91;96076.97;7394486;19;20023;-82
2023/10/20 05:17:46;;;;;;;0.10;0.10;;;;;;;35.63;39.61;96071.00;7394021;19;19998;-82
2023/10/20 05:20:19;;;;;;;0.00;0.00;;;;;;;35.63;39.43;96062.31;7397240;19;20387;-82
2023/10/20 05:22:47;;;;;;;0.00;0.00;;;;;;;35.71;39.33;96062.22;7396863;19;20014;-82
2023/10/20 05:25:14;;;;;;;0.00;0.00;;;;;;;34.50;40.54;96064.84;7397418;19;20006;-82
2023/10/20 05:27:40;;;;;;;0.20;0.10;;;;;;;35.37;39.59;96065.50;7390906;19;21029;-82
2023/10/20 05:30:08;;;;;;;0.00;0.00;;;;;;;34.97;40.18;96065.91;7391800;19;20062;-83
2023/10/20 05:32:37;;;;;;;0.10;0.10;;;;;;;35.50;39.66;96054.53;7393247;19;20018;-84
2023/10/20 05:35:04;;;;;;;0.10;0.00;;;;;;;35.35;39.89;96051.06;7391666;19;20069;-84
2023/10/20 05:37:31;;;;;;;0.45;0.15;;;;;;;34.45;40.89;96048.97;7389841;19;20366;-89
2023/10/20 05:39:57;;;;;;;0.10;0.00;;;;;;;34.11;41.58;96035.50;7392965;19;20015;-84
2023/10/20 05:42:24;;;;;;;0.55;0.20;;;;;;;33.23;42.65;96042.34;7393600;19;20015;-84
2023/10/20 05:45:02;;;;;;;0.00;0.00;;;;;;;34.02;42.10;96034.09;7391611;19;20091;-84
2023/10/20 05:47:30;;;;;;;0.00;0.00;;;;;;;33.22;42.90;96035.13;7389796;19;20006;-83
2023/10/20 05:49:57;;;;;;;0.10;0.10;;;;;;;33.40;42.82;96032.19;7392215;19;20575;-83
2023/10/20 05:52:23;;;;;;;0.05;0.05;;;;;;;32.53;44.09;96022.97;7388926;19;20465;-84
2023/10/20 05:54:50;;;;;;;0.10;0.10;;;;;;;31.89;45.04;96023.56;7391104;19;20467;-83
2023/10/20 05:57:16;;;;;;;0.20;0.10;;;;;;;32.24;45.14;96022.22;7390516;19;20026;-84
2023/10/20 05:59:43;;;;;;;0.13;0.00;;;;;;;33.16;43.66;96014.97;7391315;19;20034;-84
2023/10/20 06:02:09;;;;;;;0.00;0.00;;;;;;;32.65;44.57;96017.91;7390226;19;20006;-84
2023/10/20 06:04:35;;;;;;;0.10;0.00;;;;;;;33.10;43.38;96012.09;7389758;19;20023;-84
2023/10/20 06:07:02;;;;;;;0.10;0.10;;;;;;;33.87;42.73;96019.00;7388474;19;20014;-84
2023/10/20 06:09:28;;;;;;;0.10;0.10;;;;;;;33.84;42.46;96014.69;7390761;19;20015;-84
2023/10/20 06:11:54;;;;;;;0.00;0.00;;;;;;;33.95;42.01;96006.69;7389472;19;20006;-86
2023/10/20 06:14:21;;;;;;;0.00;0.00;;;;;;;33.58;42.30;96006.16;7387443;19;20008;-85
2023/10/20 06:16:47;;;;;;;0.00;0.00;;;;;;;32.92;42.91;96010.66;7391155;19;20066;-84
2023/10/20 06:19:13;;;;;;;0.00;0.00;;;;;;;33.67;42.15;95998.91;7389852;19;20139;-84
2023/10/20 06:21:42;;;;;;;0.00;0.00;;;;;;;33.98;41.59;95993.69;7386963;19;20091;-84
2023/10/20 06:24:09;;;;;;;0.00;0.00;;;;;;;33.85;41.53;96003.88;7389291;19;20402;-84
2023/10/20 06:26:35;;;;;;;0.30;0.30;;;;;;;33.67;41.61;95998.91;7389973;19;20480;-84
2023/10/20 06:29:02;;;;;;;0.10;0.10;;;;;;;32.48;42.80;95992.72;7387925;19;20017;-84
2023/10/20 06:34:10;;;;;;;0.10;0.00;;;;;;;33.13;42.32;95982.53;7389674;19;20423;-83
2023/10/20 06:36:38;;;;;;;0.00;0.00;;;;;;;31.54;44.15;95990.38;7388149;19;20473;-83
2023/10/20 06:39:04;;;;;;;0.10;0.00;;;;;;;32.00;43.46;95987.63;7388531;19;20361;-83
2023/10/20 06:41:30;;;;;;;0.00;0.00;;;;;;;32.20;43.31;95981.91;7389943;19;20006;-83
2023/10/20 06:43:56;;;;;;;0.20;0.10;;;;;;;32.25;43.05;95989.09;7389063;19;20461;-83
2023/10/20 06:46:22;;;;;;;0.00;0.00;;;;;;;32.46;42.51;95979.03;7388790;19;20011;-84
2023/10/20 06:48:48;;;;;;;0.00;0.00;;;;;;;31.71;43.61;95980.34;7389584;19;20015;-83
2023/10/20 06:51:15;;;;;;;0.20;0.10;;;;;;;32.25;43.07;95974.69;7390606;19;20014;-83
2023/10/20 06:53:41;;;;;;;0.00;0.00;;;;;;;34.42;39.87;95970.25;7388296;19;20031;-84
2023/10/20 06:56:07;;;;;;;0.10;0.10;;;;;;;34.03;40.38;95961.16;7387448;19;20011;-83
2023/10/20 06:58:33;;;;;;;0.00;0.00;;;;;;;34.91;39.17;95970.53;7386550;19;20480;-83
2023/10/20 07:01:04;;;;;;;0.28;0.10;;;;;;;35.96;37.51;95946.06;7389095;19;20018;-83
2023/10/20 07:03:32;;;;;;;0.10;0.10;;;;;;;36.07;37.31;95950.25;7387823;19;20035;-85
2023/10/20 07:06:00;;;;;;;0.00;0.00;;;;;;;36.02;36.98;95948.91;7386804;19;19994;-84
2023/10/20 07:08:26;;;;;;;0.63;0.20;;;;;;;35.70;37.48;95944.97;7388542;19;20003;-84
2023/10/20 07:10:52;;;;;;;0.00;0.00;;;;;;;36.65;36.52;95952.19;7387192;19;20405;-84
2023/10/20 07:13:19;;;;;;;0.00;0.00;;;;;;;36.19;36.48;95950.06;7388523;19;20498;-85
2023/10/20 07:15:46;;;;;;;0.17;0.17;;;;;;;34.72;37.94;95949.03;7386623;19;20010;-84
2023/10/20 07:18:12;;;;;;;0.00;0.00;;;;;;;35.27;37.72;95958.56;7386335;19;20014;-84
2023/10/20 07:20:39;;;;;;;0.08;0.00;;;;;;;35.61;37.26;95963.91;7385990;19;20031;-84
2023/10/20 07:23:08;;;;;;;0.00;0.00;;;;;;;35.92;36.80;95960.59;7385936;19;20010;-85
2023/10/20 07:25:34;;;;;;;0.00;0.00;;;;;;;35.86;36.64;95955.63;7387783;19;20010;-84
2023/10/20 07:28:00;;;;;;;0.20;0.20;;;;;;;36.65;35.82;95937.69;7386631;19;20036;-84
2023/10/20 07:30:30;;;;;;;0.10;0.00;;;;;;;35.14;37.05;95945.69;7387074;19;20481;-84
2023/10/20 07:32:56;;;;;;;0.35;0.30;;;;;;;35.16;36.49;95930.47;7386072;19;20015;-83
2023/10/20 07:35:23;;;;;;;0.10;0.10;;;;;;;34.71;37.35;95936.03;7392932;19;20020;-83
2023/10/20 07:37:49;;;;;;;0.10;0.00;;;;;;;33.48;38.69;95939.81;7395399;19;20014;-83
2023/10/20 07:40:15;;;;;;;0.10;0.10;;;;;;;33.76;38.75;95922.38;7394954;19;20446;-83
2023/10/20 07:42:42;;;;;;;0.10;0.00;;;;;;;34.84;37.05;95929.38;7393606;19;20491;-84
2023/10/20 07:45:10;;;;;;;0.20;0.20;;;;;;;35.29;37.13;95926.69;7394684;19;20965;-84
2023/10/20 07:47:37;;;;;;;0.22;0.20;;;;;;;35.35;36.65;95928.78;7394366;19;20013;-84
2023/10/20 07:50:04;;;;;;;0.08;0.00;;;;;;;34.29;37.89;95937.13;7395310;19;20006;-83
2023/10/20 07:52:30;;;;;;;0.10;0.10;;;;;;;34.89;37.18;95912.72;7391167;19;20002;-82
2023/10/20 07:54:57;;;;;;;0.10;0.00;;;;;;;35.47;36.79;95926.47;7394297;19;20371;-81
2023/10/20 07:57:24;;;;;;;0.10;0.00;;;;;;;34.65;37.71;95915.88;7394348;19;20019;-83
2023/10/20 07:59:50;;;;;;;0.10;0.00;;;;;;;33.55;38.54;95927.53;7392857;19;20015;-83
2023/10/20 08:02:17;;;;;;;0.10;0.00;;;;;;;34.54;37.52;95928.97;7394797;19;20007;-83
2023/10/20 08:04:43;;;;;;;0.00;0.00;;;;;;;32.62;39.82;95923.53;7396036;19;20006;-82
2023/10/20 08:07:09;;;;;;;0.10;0.10;;;;;;;33.53;39.15;95915.28;7393713;19;20048;-83
2023/10/20 08:09:39;;;;;;;0.15;0.15;;;;;;;33.40;38.89;95916.78;7393064;19;20014;-82
2023/10/20 08:12:05;;;;;;;0.20;0.20;;;;;;;33.03;39.12;95918.41;7392764;19;20030;-83
2023/10/20 08:14:33;;;;;;;0.00;0.00;;;;;;;34.56;37.71;95915.25;7391402;19;20477;-82
2023/10/20 08:17:03;;;;;;;0.10;0.00;;;;;;;34.19;38.13;95914.13;7391474;19;20017;-82
2023/10/20 08:19:30;;;;;;;0.00;0.00;;;;;;;34.03;38.29;95926.50;7390292;19;20010;-82
2023/10/20 08:21:57;;;;;;;0.00;0.00;;;;;;;34.59;37.46;95918.81;7393942;19;20421;-82
2023/10/20 08:24:23;;;;;;;0.00;0.00;;;;;;;35.04;36.82;95929.16;7391539;19;20014;-82
2023/10/20 08:26:49;;;;;;;0.00;0.00;;;;;;;34.40;37.31;95920.41;7391541;19;20491;-82
2023/10/20 08:29:16;;;;;;;0.10;0.10;;;;;;;34.09;37.80;95923.56;7394126;19;20014;-83
2023/10/20 08:31:43;;;;;;;0.10;0.00;;;;;;;33.57;38.62;95923.91;7392740;19;20046;-82
2023/10/20 08:34:09;;;;;;;0.00;0.00;;;;;;;34.38;37.01;95923.31;7391303;19;20007;-82
2023/10/20 08:36:35;;;;;;;0.00;0.00;;;;;;;33.22;38.68;95926.25;7390794;19;20014;-83
2023/10/20 08:39:12;;;;;;;0.10;0.10;;;;;;;31.29;40.86;95934.94;7391600;19;20017;-82
2023/10/20 08:41:41;;;;;;;0.10;0.00;;;;;;;32.51;39.76;95925.03;7395131;19;20011;-82
2023/10/20 08:44:09;;;;;;;0.10;0.10;;;;;;;34.26;37.58;95933.53;7393312;19;20374;-82
2023/10/20 08:46:35;;;;;;;0.00;0.00;;;;;;;34.89;36.71;95921.38;7388271;19;20045;-82
2023/10/20 08:49:04;;;;;;;0.00;0.00;;;;;;;34.31;37.14;95926.28;7391808;19;20002;-82
2023/10/20 08:51:31;;;;;;;0.10;0.10;;;;;;;34.59;36.97;95916.63;7392068;19;19998;-82
2023/10/20 08:53:57;;;;;;;0.25;0.25;;;;;;;35.60;35.95;95921.25;7393236;19;20040;-82
2023/10/20 08:56:23;;;;;;;0.00;0.00;;;;;;;36.08;35.15;95914.03;7390630;19;20348;-82
2023/10/20 08:58:49;;;;;;;0.10;0.00;;;;;;;36.28;34.83;95920.19;7389340;19;20026;-85
2023/10/20 09:01:16;;;;;;;0.00;0.00;;;;;;;36.61;34.31;95908.75;7392993;19;20376;-86
2023/10/20 09:03:45;;;;;;;0.00;0.00;;;;;;;34.93;35.82;95921.34;7390305;19;20019;-86
2023/10/20 09:06:14;;;;;;;0.00;0.00;;;;;;;34.75;36.15;95921.53;7390883;19;20021;-85
2023/10/20 09:08:43;;;;;;;0.10;0.00;;;;;;;35.38;35.70;95918.63;7392191;19;20002;-82
2023/10/20 09:11:11;;;;;;;0.10;0.10;;;;;;;35.05;35.90;95912.53;7391196;19;20045;-83
2023/10/20 09:13:39;;;;;;;0.00;0.00;;;;;;;34.98;35.98;95911.13;7391683;19;20047;-84
2023/10/20 09:16:08;;;;;;;0.10;0.00;;;;;;;34.08;36.55;95913.47;7391893;19;20014;-84
2023/10/20 09:18:48;;;;;;;0.15;0.03;;;;;;;35.24;35.46;95907.94;7397944;19;20009;-85
2023/10/20 09:21:16;;;;;;;0.00;0.00;;;;;;;32.34;38.52;95912.75;7395711;19;20465;-83
2023/10/20 09:23:54;;;;;;;0.00;0.00;;;;;;;32.04;39.55;95924.31;7390945;19;20370;-84
2023/10/20 09:26:21;;;;;;;0.10;0.00;;;;;;;32.04;39.41;95915.66;7390885;19;20024;-84
2023/10/20 09:28:53;;;;;;;0.10;0.00;;;;;;;32.22;39.30;95898.38;7395242;19;20449;-83
2023/10/20 09:31:20;;;;;;;0.10;0.10;;;;;;;30.76;41.53;95925.34;7388169;19;20014;-84
2023/10/20 09:33:46;;;;;;;0.52;0.52;;;;;;;30.69;41.50;95915.97;7392160;19;19998;-84
2023/10/20 09:36:13;;;;;;;0.05;0.00;;;;;;;31.05;40.91;95921.19;7388938;19;20003;-83
2023/10/20 09:38:39;;;;;;;0.10;0.00;;;;;;;32.26;40.14;95929.34;7389598;19;20559;-82
2023/10/20 09:41:11;;;;;;;0.10;0.00;;;;;;;32.25;39.75;95925.72;7391102;19;20104;-84
2023/10/20 09:43:48;;;;;;;0.10;0.00;;;;;;;34.35;37.35;95925.50;7388616;19;20438;-84
2023/10/20 09:46:40;;;;;;;2.72;0.10;;;;;;;34.68;36.67;95920.16;7390075;19;20047;-82
2023/10/20 09:49:14;;;;;;;0.10;0.00;;;;;;;32.36;39.13;95935.81;7389484;19;20002;-82
2023/10/20 09:51:45;;;;;;;0.05;0.00;;;;;;;32.97;38.62;95932.81;7388772;19;20006;-82
2023/10/20 09:54:13;;;;;;;0.20;0.10;;;;;;;34.63;37.21;95930.34;7387689;19;20006;-85
2023/10/20 09:56:42;;;;;;;0.08;0.00;;;;;;;35.37;36.07;95940.34;7387415;19;20010;-83
2023/10/20 09:59:09;;;;;;;0.75;0.40;;;;;;;35.62;35.88;95944.38;7388722;19;20011;-83
2023/10/20 10:01:37;;;;;;;0.00;0.00;;;;;;;37.22;34.19;95940.97;7388864;19;20399;-84
2023/10/20 10:04:05;;;;;;;0.10;0.00;;;;;;;36.66;34.28;95947.81;7390312;19;20334;-83
2023/10/20 10:06:35;;;;;;;0.00;0.00;;;;;;;37.28;33.81;95934.31;7388751;19;20094;-83
2023/10/20 10:09:05;;;;;;;0.10;0.00;;;;;;;35.89;34.96;95950.50;7387705;19;21189;-82
2023/10/20 10:11:42;;;;;;;0.08;0.00;;;;;;;35.30;35.31;95953.47;7388312;19;20018;-84
2023/10/20 10:14:18;;;;;;;0.00;0.00;;;;;;;33.92;36.68;95951.09;7387549;19;20375;-84
2023/10/20 10:16:49;;;;;;;0.08;0.00;;;;;;;32.73;37.82;95963.16;7386802;19;20014;-84
2023/10/20 10:19:16;;;;;;;0.10;0.00;;;;;;;32.17;38.81;95958.16;7388004;19;20074;-83
2023/10/20 10:21:49;;;;;;;0.10;0.00;;;;;;;31.18;40.29;95967.94;7388225;19;20010;-82
2023/10/20 10:24:18;;;;;;;0.03;0.00;;;;;;;31.82;39.59;95961.66;7389232;19;20006;-83
2023/10/20 10:27:06;;;;;;;0.10;0.00;;;;;;;33.26;38.27;95957.25;7387767;19;20473;-82
2023/10/20 10:30:00;;;;;;;0.10;0.10;;;;;;;31.26;40.40;95954.31;7386327;19;20029;-83
2023/10/20 10:32:31;;;;;;;0.10;0.00;;;;;;;30.89;41.04;95954.88;7386733;19;20015;-83
2023/10/20 10:34:58;;;;;;;0.10;0.00;;;;;;;30.33;41.82;95955.94;7392064;19;20018;-84
2023/10/20 10:37:35;;;;;;;0.10;0.00;;;;;;;30.14;42.07;95959.34;7386192;19;20010;-83
2023/10/20 10:40:13;;;;;;;0.00;0.00;;;;;;;31.74;40.52;95955.91;7390481;19;20022;-83
2023/10/20 10:42:47;;;;;;;0.00;0.00;;;;;;;35.59;36.30;95949.47;7386820;19;20093;-83
2023/10/20 10:45:27;;;;;;;0.10;0.00;;;;;;;37.83;33.79;95943.31;7387787;19;20003;-83
2023/10/20 10:48:15;;;;;;;0.00;0.00;;;;;;;37.80;32.97;95947.75;7389390;19;20365;-83
2023/10/20 10:50:48;;;;;;;0.10;0.10;;;;;;;36.19;34.32;95956.56;7390739;19;20007;-82
2023/10/20 10:53:15;;;;;;;0.10;0.10;;;;;;;37.16;33.39;95957.78;7387992;19;20021;-83
2023/10/20 10:55:43;;;;;;;0.10;0.00;;;;;;;37.52;33.09;95953.44;7388073;19;20011;-83
2023/10/20 10:58:15;;;;;;;0.00;0.00;;;;;;;35.01;35.04;95950.19;7387741;19;20021;-82
2023/10/20 11:00:45;;;;;;;0.10;0.00;;;;;;;34.42;35.90;95958.69;7387889;19;20072;-82
2023/10/20 11:03:13;;;;;;;0.00;0.00;;;;;;;34.57;35.29;95945.56;7391259;19;20018;-83
2023/10/20 11:05:40;;;;;;;0.10;0.00;;;;;;;34.72;35.49;95957.69;7386302;19;20011;-82
2023/10/20 11:08:09;;;;;;;0.05;0.00;;;;;;;35.46;34.65;95953.25;7389441;19;20009;-82
2023/10/20 11:10:41;;;;;;;0.10;0.00;;;;;;;35.94;34.01;95943.19;7395281;19;20036;-81
2023/10/20 11:13:13;;;;;;;0.00;0.00;;;;;;;34.83;34.61;95941.69;7392803;19;20094;-82
2023/10/20 11:15:40;;;;;;;0.10;0.00;;;;;;;33.15;36.35;95950.81;7394370;19;20006;-91
2023/10/20 11:18:10;;;;;;;0.10;0.10;;;;;;;32.99;36.91;95941.44;7393492;19;20022;-83
2023/10/20 11:20:40;;;;;;;0.10;0.00;;;;;;;34.55;35.22;95956.41;7395146;19;20498;-83
2023/10/20 11:23:11;;;;;;;0.10;0.00;;;;;;;35.33;34.94;95949.78;7396901;19;20034;-83
2023/10/20 11:25:37;;;;;;;0.00;0.00;;;;;;;35.80;34.00;95947.72;7393658;19;20015;-86
2023/10/20 11:28:03;;;;;;;0.00;0.00;;;;;;;36.05;33.70;95938.69;7395901;19;20019;-86
2023/10/20 11:30:31;;;;;;;0.50;0.50;;;;;;;35.65;33.77;95932.00;7394851;19;20010;-84
2023/10/20 11:32:58;;;;;;;0.10;0.10;;;;;;;36.33;33.20;95936.06;7394683;19;20014;-86
2023/10/20 11:35:24;;;;;;;0.10;0.10;;;;;;;35.23;34.05;95940.53;7394998;19;20010;-87
2023/10/20 11:37:51;;;;;;;0.15;0.15;;;;;;;32.78;37.12;95930.00;7393467;19;20023;-86
2023/10/20 11:40:18;;;;;;;0.10;0.00;;;;;;;32.98;36.42;95928.50;7393406;19;20011;-85
2023/10/20 11:42:45;;;;;;;0.10;0.00;;;;;;;32.77;36.99;95937.19;7392639;19;20642;-86
2023/10/20 11:45:11;;;;;;;0.00;0.00;;;;;;;33.49;36.69;95932.59;7389725;19;20014;-85
2023/10/20 11:47:38;;;;;;;0.20;0.20;;;;;;;34.62;35.34;95928.91;7387712;19;20069;-86
2023/10/20 11:50:08;;;;;;;0.10;0.00;;;;;;;34.89;34.81;95921.38;7390058;19;20095;-86
2023/10/20 11:52:38;;;;;;;0.10;0.00;;;;;;;36.81;32.99;95925.06;7389300;19;20094;-86
2023/10/20 11:55:06;;;;;;;0.10;0.10;;;;;;;37.68;32.39;95915.31;7395329;19;20397;-85
2023/10/20 11:57:32;;;;;;;0.10;0.10;;;;;;;38.40;31.21;95922.31;7392657;19;20264;-88
2023/10/20 11:59:59;;;;;;;0.00;0.00;;;;;;;38.03;31.61;95921.78;7392921;19;20084;-85
2023/10/20 12:02:25;;;;;;;0.10;0.00;;;;;;;38.10;31.19;95922.38;7393495;19;20022;-85
2023/10/20 12:04:51;;;;;;;0.10;0.00;;;;;;;38.14;31.40;95916.44;7394176;19;20026;-86
2023/10/20 12:07:18;;;;;;;0.00;0.00;;;;;;;36.07;33.14;95912.59;7392623;19;20547;-85
2023/10/20 12:09:45;;;;;;;0.10;0.00;;;;;;;35.34;34.05;95925.19;7394952;19;20011;-83
2023/10/20 12:12:12;;;;;;;0.10;0.10;;;;;;;35.03;34.02;95924.13;7392832;19;20066;-83
2023/10/20 12:14:38;;;;;;;0.10;0.00;;;;;;;34.91;34.33;95924.94;7391987;19;20028;-83
2023/10/20 12:17:04;;;;;;;0.10;0.00;;;;;;;34.60;34.62;95926.75;7392591;19;20007;-84